createdAt,value
2019-03-15T00:02:15.101Z,14.43
2019-03-15T00:04:46.490Z,16.00
2019-03-15T00:07:17.593Z,12.27
2019-03-15T00:09:49.158Z,12.20
2019-03-15T00:12:20.376Z,17.87
2019-03-15T00:14:51.585Z,10.13
2019-03-15T00:17:23.249Z,10.83
2019-03-15T00:19:54.454Z,15.80
2019-03-15T00:22:25.659Z,14.17
2019-03-15T00:24:57.110Z,7.17
2019-03-15T00:27:28.316Z,11.43
2019-03-15T00:29:59.819Z,14.77
2019-03-15T00:32:31.150Z,11.13
2019-03-15T00:35:02.280Z,12.23
2019-03-15T00:37:33.867Z,10.33
2019-03-15T00:40:06.227Z,13.47
2019-03-15T00:42:37.623Z,12.37
2019-03-15T00:45:09.915Z,17.87
2019-03-15T00:47:41.174Z,10.30
2019-03-15T00:50:12.949Z,11.90
2019-03-15T00:52:44.208Z,9.53
2019-03-15T00:55:15.492Z,10.13
2019-03-15T00:57:46.735Z,10.87
2019-03-15T01:00:18.665Z,9.30
2019-03-15T01:05:19.432Z,12.00
2019-03-15T01:07:50.602Z,10.17
2019-03-15T01:10:22.077Z,13.73
2019-03-15T01:12:53.867Z,10.10
2019-03-15T01:15:25.513Z,11.27
2019-03-15T01:17:56.661Z,11.40
2019-03-15T01:20:28.205Z,11.27
2019-03-15T01:22:59.422Z,11.30
2019-03-15T01:25:30.859Z,11.47
2019-03-15T01:28:02.026Z,9.20
2019-03-15T01:30:33.514Z,13.07
2019-03-15T01:33:04.673Z,10.77
2019-03-15T01:35:35.880Z,10.37
2019-03-15T01:38:07.017Z,10.53
2019-03-15T01:40:38.911Z,10.17
2019-03-15T01:43:10.710Z,8.73
2019-03-15T01:45:41.884Z,12.57
2019-03-15T01:48:13.072Z,9.07
2019-03-15T01:50:44.610Z,8.27
2019-03-15T01:53:15.715Z,7.63
2019-03-15T01:55:47.006Z,7.50
2019-03-15T01:58:18.189Z,9.47
2019-03-15T02:00:49.531Z,15.77
2019-03-15T02:03:21.045Z,9.20
2019-03-15T02:05:52.200Z,5.57
2019-03-15T02:08:23.386Z,10.47
2019-03-15T02:10:54.807Z,9.43
2019-03-15T02:13:26.235Z,6.03
2019-03-15T02:15:57.376Z,7.17
2019-03-15T02:18:28.458Z,7.43
2019-03-15T02:20:59.551Z,7.73
2019-03-15T02:23:30.647Z,10.07
2019-03-15T02:26:01.763Z,12.00
2019-03-15T02:28:33.627Z,11.27
2019-03-15T02:31:05.469Z,7.17
2019-03-15T02:33:37.237Z,5.87
2019-03-15T02:36:08.625Z,7.13
2019-03-15T02:38:39.746Z,7.40
2019-03-15T02:41:10.926Z,9.93
2019-03-15T02:43:42.098Z,8.87
2019-03-15T02:46:13.292Z,10.50
2019-03-15T02:48:44.450Z,9.30
2019-03-15T02:51:15.601Z,7.07
2019-03-15T02:53:47.133Z,9.80
2019-03-15T02:56:18.636Z,8.93
2019-03-15T02:58:50.020Z,9.03
2019-03-15T03:01:21.274Z,5.30
2019-03-15T03:03:52.372Z,6.97
2019-03-15T03:06:24.049Z,5.30
2019-03-15T03:08:55.378Z,7.90
2019-03-15T03:11:27.570Z,9.60
2019-03-15T03:13:59.014Z,13.97
2019-03-15T03:16:30.172Z,8.53
2019-03-15T03:19:01.540Z,8.43
2019-03-15T03:21:32.791Z,6.87
2019-03-15T03:24:04.023Z,9.17
2019-03-15T03:26:35.574Z,9.40
2019-03-15T03:29:07.107Z,8.33
2019-03-15T03:31:38.318Z,13.53
2019-03-15T03:34:10.073Z,6.60
2019-03-15T03:36:42.502Z,8.87
2019-03-15T03:39:13.756Z,10.67
2019-03-15T03:41:45.588Z,4.67
2019-03-15T03:44:16.923Z,8.23
2019-03-15T03:46:48.091Z,8.43
2019-03-15T03:49:19.599Z,8.70
2019-03-15T03:51:50.933Z,8.23
2019-03-15T03:54:23.163Z,8.83
2019-03-15T03:56:54.508Z,10.30
2019-03-15T03:59:25.847Z,10.70
2019-03-15T04:01:57.093Z,10.33
2019-03-15T04:04:28.419Z,8.60
2019-03-15T04:06:59.720Z,9.60
2019-03-15T04:09:31.174Z,8.40
2019-03-15T04:12:02.660Z,10.43
2019-03-15T04:14:34.708Z,9.23
2019-03-15T04:17:05.993Z,8.33
2019-03-15T04:19:37.253Z,10.50
2019-03-15T04:22:08.516Z,8.33
2019-03-15T04:24:39.680Z,12.10
2019-03-15T04:27:10.927Z,9.40
2019-03-15T04:29:42.398Z,8.07
2019-03-15T04:32:13.474Z,8.97
2019-03-15T04:34:44.661Z,12.83
2019-03-15T04:37:15.842Z,10.43
2019-03-15T04:39:47.188Z,13.57
2019-03-15T04:42:18.694Z,12.83
2019-03-15T04:44:49.811Z,9.27
2019-03-15T04:47:20.897Z,10.43
2019-03-15T04:49:52.980Z,13.23
2019-03-15T04:52:24.229Z,10.97
2019-03-15T04:54:55.858Z,12.77
2019-03-15T04:57:27.298Z,9.70
2019-03-15T04:59:58.367Z,7.53
2019-03-15T05:02:29.550Z,12.97
2019-03-15T05:05:01.105Z,14.50
2019-03-15T05:07:32.394Z,16.27
2019-03-15T05:10:03.645Z,9.53
2019-03-15T05:12:34.945Z,9.17
2019-03-15T05:15:06.704Z,17.47
2019-03-15T05:17:37.882Z,8.87
2019-03-15T05:20:09.384Z,12.57
2019-03-15T05:22:40.771Z,14.90
2019-03-15T05:25:12.985Z,10.57
2019-03-15T05:27:44.170Z,14.67
2019-03-15T05:30:15.712Z,12.23
2019-03-15T05:32:47.194Z,14.60
2019-03-15T05:35:18.459Z,10.63
2019-03-15T05:37:49.550Z,9.27
2019-03-15T05:40:21.093Z,14.17
2019-03-15T05:42:52.261Z,12.40
2019-03-15T05:45:23.550Z,15.70
2019-03-15T05:47:54.636Z,14.00
2019-03-15T05:50:25.739Z,18.40
2019-03-15T05:52:56.995Z,12.57
2019-03-15T05:55:28.560Z,12.43
2019-03-15T05:57:59.731Z,13.17
2019-03-15T06:00:30.820Z,16.87
2019-03-15T06:03:02.025Z,11.93
2019-03-15T06:05:33.200Z,20.20
2019-03-15T06:08:04.448Z,16.50
2019-03-15T06:10:35.626Z,10.20
2019-03-15T06:13:06.864Z,17.87
2019-03-15T06:15:38.465Z,14.07
2019-03-15T06:18:09.634Z,18.80
2019-03-15T06:20:41.210Z,13.57
2019-03-15T06:23:12.256Z,12.80
2019-03-15T06:25:43.512Z,14.37
2019-03-15T06:28:15.114Z,14.30
2019-03-15T06:30:46.315Z,16.17
2019-03-15T06:33:17.508Z,14.30
2019-03-15T06:35:48.765Z,17.67
2019-03-15T06:38:20.237Z,13.97
2019-03-15T06:40:51.434Z,13.80
2019-03-15T06:43:22.592Z,14.10
2019-03-15T06:45:53.684Z,11.57
2019-03-15T06:48:24.766Z,12.83
2019-03-15T06:50:56.290Z,9.63
2019-03-15T06:53:27.413Z,12.20
2019-03-15T06:55:58.820Z,13.37
2019-03-15T06:58:30.089Z,16.00
2019-03-15T07:01:01.263Z,12.90
2019-03-15T07:03:32.816Z,9.70
2019-03-15T07:06:04.375Z,12.13
2019-03-15T07:08:36.186Z,9.87
2019-03-15T07:11:07.302Z,13.17
2019-03-15T07:13:38.440Z,16.53
2019-03-15T07:16:09.771Z,12.47
2019-03-15T07:18:41.179Z,14.23
2019-03-15T07:21:12.370Z,8.40
2019-03-15T07:23:43.975Z,14.27
2019-03-15T07:26:15.161Z,9.30
2019-03-15T07:28:46.354Z,6.13
2019-03-15T07:31:17.623Z,8.70
2019-03-15T07:33:49.651Z,5.80
2019-03-15T07:36:20.987Z,7.93
2019-03-15T07:38:52.218Z,8.00
2019-03-15T07:41:25.420Z,5.10
2019-03-15T07:43:56.228Z,3.47
2019-03-15T07:46:27.572Z,3.73
2019-03-15T07:48:58.668Z,2.50
2019-03-15T07:51:29.795Z,1.97
2019-03-15T07:54:00.959Z,1.43
2019-03-15T07:56:32.143Z,2.60
2019-03-15T07:59:03.367Z,1.03
2019-03-15T08:01:34.558Z,4.20
2019-03-15T08:04:16.235Z,1.53
2019-03-15T08:06:38.716Z,0.80
2019-03-15T08:09:09.883Z,1.13
2019-03-15T08:11:41.331Z,1.90
2019-03-15T08:14:12.417Z,1.33
2019-03-15T08:16:43.964Z,1.03
2019-03-15T08:19:15.235Z,0.70
2019-03-15T08:21:46.343Z,0.60
2019-03-15T08:24:17.744Z,1.47
2019-03-15T08:26:49.170Z,0.63
2019-03-15T08:29:20.624Z,0.90
2019-03-15T08:31:51.875Z,0.63
2019-03-15T08:34:23.033Z,1.97
2019-03-15T08:36:54.236Z,1.77
2019-03-15T08:39:26.218Z,1.90
2019-03-15T08:41:57.547Z,0.83
2019-03-15T08:44:28.925Z,2.10
2019-03-15T08:47:00.423Z,2.43
2019-03-15T08:49:31.588Z,1.40
2019-03-15T08:52:03.984Z,1.67
2019-03-15T08:54:35.770Z,1.23
2019-03-15T08:57:07.094Z,2.20
2019-03-15T08:59:52.556Z,0.80
2019-03-15T09:02:11.556Z,0.70
2019-03-15T09:04:42.826Z,0.77
2019-03-15T09:07:14.327Z,1.70
2019-03-15T09:09:46.268Z,2.80
2019-03-15T09:12:17.459Z,1.60
2019-03-15T09:14:48.706Z,2.00
2019-03-15T09:17:20.271Z,0.57
2019-03-15T09:19:52.041Z,0.60
2019-03-15T09:22:23.565Z,0.50
2019-03-15T09:24:54.744Z,0.30
2019-03-15T09:27:26.764Z,1.40
2019-03-15T09:29:58.005Z,1.33
2019-03-15T09:32:29.230Z,0.63
2019-03-15T09:35:00.565Z,1.00
2019-03-15T09:37:31.683Z,1.10
2019-03-15T09:40:03.011Z,1.10
2019-03-15T09:42:34.520Z,0.40
2019-03-15T09:45:06.216Z,0.40
2019-03-15T09:47:37.543Z,1.33
2019-03-15T09:50:21.053Z,0.40
2019-03-15T09:52:43.735Z,1.77
2019-03-15T09:55:15.219Z,1.00
2019-03-15T09:57:46.781Z,1.10
2019-03-15T10:00:18.286Z,1.00
2019-03-15T10:02:49.945Z,1.43
2019-03-15T10:05:21.478Z,0.60
2019-03-15T10:07:52.716Z,0.70
2019-03-15T10:10:24.016Z,0.60
2019-03-15T10:13:05.224Z,0.80
2019-03-15T10:15:28.430Z,0.40
2019-03-15T10:17:59.605Z,0.60
2019-03-15T10:20:30.913Z,1.03
2019-03-15T10:23:06.023Z,0.60
2019-03-15T10:25:46.341Z,0.97
2019-03-15T10:28:08.688Z,0.83
2019-03-15T10:30:40.128Z,1.37
2019-03-15T10:33:11.884Z,0.97
2019-03-15T10:35:43.180Z,0.60
2019-03-15T10:38:16.668Z,1.20
2019-03-15T10:40:47.385Z,0.80
2019-03-15T10:43:18.718Z,0.60
2019-03-15T10:45:50.098Z,1.63
2019-03-15T10:48:25.565Z,1.90
2019-03-15T10:50:54.658Z,1.83
2019-03-15T10:53:25.844Z,2.10
2019-03-15T10:56:00.494Z,1.63
2019-03-15T10:58:30.544Z,1.63
2019-03-15T11:01:01.757Z,2.50
2019-03-15T11:03:33.106Z,1.53
2019-03-15T11:06:06.175Z,2.40
2019-03-15T11:08:36.886Z,1.00
2019-03-15T11:11:08.174Z,0.97
2019-03-15T11:13:39.618Z,1.23
2019-03-15T11:16:10.940Z,1.13
2019-03-15T11:18:42.273Z,1.43
2019-03-15T11:21:13.594Z,1.13
2019-03-15T11:23:44.843Z,0.73
2019-03-15T11:26:16.120Z,1.33
2019-03-15T11:28:47.693Z,2.63
2019-03-15T11:31:19.206Z,1.53
2019-03-15T11:33:50.466Z,2.47
2019-03-15T11:36:21.783Z,2.40
2019-03-15T11:38:53.024Z,1.17
2019-03-15T11:41:24.321Z,1.63
2019-03-15T11:43:55.606Z,1.50
2019-03-15T11:46:26.776Z,2.20
2019-03-15T11:48:58.065Z,3.30
2019-03-15T11:51:29.744Z,1.37
2019-03-15T11:54:01.806Z,2.73
2019-03-15T11:56:33.428Z,2.17
2019-03-15T11:59:05.248Z,2.60
2019-03-15T12:01:37.809Z,3.47
2019-03-15T12:04:09.160Z,3.00
2019-03-15T12:06:40.268Z,1.43
2019-03-15T12:09:11.476Z,2.13
2019-03-15T12:11:42.792Z,3.53
2019-03-15T12:14:14.128Z,3.60
2019-03-15T12:16:45.996Z,3.40
2019-03-15T12:19:17.242Z,2.27
2019-03-15T12:21:48.549Z,3.73
2019-03-15T12:24:19.731Z,3.07
2019-03-15T12:26:51.286Z,2.77
2019-03-15T12:29:22.995Z,1.67
2019-03-15T12:31:54.648Z,2.30
2019-03-15T12:34:25.758Z,0.90
2019-03-15T12:36:57.337Z,1.33
2019-03-15T12:39:28.638Z,1.63
2019-03-15T12:41:59.915Z,4.20
2019-03-15T12:44:31.201Z,2.83
2019-03-15T12:47:05.932Z,4.00
2019-03-15T12:49:35.758Z,1.77
2019-03-15T12:52:07.034Z,2.27
2019-03-15T12:54:38.251Z,2.13
2019-03-15T12:57:09.876Z,1.33
2019-03-15T12:59:41.889Z,2.57
2019-03-15T13:02:13.440Z,2.20
2019-03-15T13:04:44.548Z,1.40
2019-03-15T13:07:16.208Z,1.80
2019-03-15T13:09:47.318Z,1.73
2019-03-15T13:12:18.563Z,3.77
2019-03-15T13:14:49.765Z,3.20
2019-03-15T13:17:20.958Z,4.33
2019-03-15T13:19:55.460Z,4.47
2019-03-15T13:22:25.356Z,2.23
2019-03-15T13:24:56.442Z,2.93
2019-03-15T13:27:27.622Z,3.13
2019-03-15T13:29:58.878Z,2.67
2019-03-15T13:32:30.273Z,2.73
2019-03-15T13:35:01.750Z,2.97
2019-03-15T13:37:33.132Z,3.23
2019-03-15T13:40:05.912Z,4.37
2019-03-15T13:42:37.434Z,2.80
2019-03-15T13:45:10.884Z,3.37
2019-03-15T13:47:42.696Z,2.13
2019-03-15T13:50:14.524Z,3.33
2019-03-15T13:52:45.762Z,5.03
2019-03-15T13:55:17.436Z,4.13
2019-03-15T13:57:48.705Z,4.63
2019-03-15T14:00:20.272Z,3.33
2019-03-15T14:02:51.540Z,4.30
2019-03-15T14:05:22.717Z,2.30
2019-03-15T14:07:53.950Z,4.13
2019-03-15T14:10:25.229Z,2.67
2019-03-15T14:12:56.773Z,4.93
2019-03-15T14:15:27.962Z,3.40
2019-03-15T14:17:59.324Z,3.37
2019-03-15T14:20:30.504Z,4.40
2019-03-15T14:23:01.778Z,1.40
2019-03-15T14:25:33.623Z,2.57
2019-03-15T14:28:05.000Z,2.33
2019-03-15T14:30:36.234Z,2.20
2019-03-15T14:33:07.382Z,1.87
2019-03-15T14:35:38.584Z,1.53
2019-03-15T14:38:10.354Z,1.00
2019-03-15T14:40:41.612Z,3.13
2019-03-15T14:43:13.020Z,2.03
2019-03-15T14:45:44.584Z,5.13
2019-03-15T14:48:15.791Z,2.33
2019-03-15T14:50:46.868Z,2.47
2019-03-15T14:53:18.260Z,1.43
2019-03-15T14:55:50.037Z,2.13
2019-03-15T14:58:21.523Z,3.97
2019-03-15T15:00:53.204Z,2.20
2019-03-15T15:03:24.415Z,2.00
2019-03-15T15:05:55.824Z,1.20
2019-03-15T15:08:27.979Z,1.10
2019-03-15T15:10:59.151Z,0.80
2019-03-15T15:13:30.400Z,1.20
2019-03-15T15:16:01.824Z,1.00
2019-03-15T15:18:33.387Z,2.47
2019-03-15T15:21:04.677Z,1.57
2019-03-15T15:23:35.771Z,1.87
2019-03-15T15:26:07.129Z,2.23
2019-03-15T15:28:38.313Z,1.77
2019-03-15T15:31:09.439Z,0.93
2019-03-15T15:33:40.830Z,1.87
2019-03-15T15:36:11.999Z,3.03
2019-03-15T15:38:43.500Z,3.47
2019-03-15T15:41:14.588Z,2.20
2019-03-15T15:43:45.770Z,3.27
2019-03-15T15:46:16.987Z,2.73
2019-03-15T15:48:48.444Z,4.53
2019-03-15T15:51:19.627Z,3.33
2019-03-15T15:53:51.215Z,3.67
2019-03-15T15:56:22.540Z,1.97
2019-03-15T15:58:53.706Z,1.90
2019-03-15T16:01:25.639Z,2.57
2019-03-15T16:03:57.232Z,3.27
2019-03-15T16:06:28.491Z,2.33
2019-03-15T16:09:00.215Z,2.13
2019-03-15T16:11:31.554Z,1.50
2019-03-15T16:14:03.101Z,0.70
2019-03-15T16:16:34.557Z,1.57
2019-03-15T16:19:05.918Z,1.23
2019-03-15T16:21:37.140Z,1.10
2019-03-15T16:24:08.398Z,2.77
2019-03-15T16:26:40.936Z,2.53
2019-03-15T16:29:12.114Z,1.13
2019-03-15T16:31:43.266Z,1.27
2019-03-15T16:34:14.530Z,1.30
2019-03-15T16:36:46.122Z,1.10
2019-03-15T16:39:17.319Z,1.87
2019-03-15T16:41:48.442Z,4.07
2019-03-15T16:44:19.691Z,1.00
2019-03-15T16:46:51.162Z,0.90
2019-03-15T16:49:22.625Z,0.80
2019-03-15T16:51:53.950Z,0.67
2019-03-15T16:54:25.864Z,0.87
2019-03-15T16:56:57.003Z,0.70
2019-03-15T16:59:28.291Z,0.63
2019-03-15T17:01:59.576Z,0.93
2019-03-15T17:04:30.809Z,0.70
2019-03-15T17:07:02.305Z,1.10
2019-03-15T17:09:34.118Z,0.53
2019-03-15T17:12:05.877Z,0.67
2019-03-15T17:14:37.442Z,1.23
2019-03-15T17:17:08.801Z,0.57
2019-03-15T17:19:40.511Z,0.60
2019-03-15T17:22:11.838Z,0.50
2019-03-15T17:24:42.953Z,1.33
2019-03-15T17:27:14.536Z,0.70
2019-03-15T17:29:46.200Z,0.73
2019-03-15T17:32:17.339Z,0.60
2019-03-15T17:34:48.618Z,0.93
2019-03-15T17:37:19.979Z,1.10
2019-03-15T17:39:51.213Z,0.80
2019-03-15T17:42:22.523Z,0.93
2019-03-15T17:44:53.656Z,1.00
2019-03-15T17:47:24.774Z,1.00
2019-03-15T17:49:57.106Z,1.00
2019-03-15T17:52:28.288Z,1.37
2019-03-15T17:54:59.562Z,1.27
2019-03-15T17:57:30.771Z,1.77
2019-03-15T18:00:34.879Z,1.50
2019-03-15T18:03:19.768Z,1.03
2019-03-15T18:05:40.250Z,0.90
2019-03-15T18:08:11.623Z,1.43
2019-03-15T18:10:42.958Z,1.47
2019-03-15T18:13:14.306Z,0.50
2019-03-15T18:15:45.621Z,1.37
2019-03-15T18:18:16.973Z,1.57
2019-03-15T18:20:48.425Z,0.77
2019-03-15T18:23:19.718Z,0.87
2019-03-15T18:25:51.068Z,1.47
2019-03-15T18:28:22.248Z,0.80
2019-03-15T18:30:53.454Z,0.50
2019-03-15T18:33:24.929Z,1.30
2019-03-15T18:35:56.261Z,0.60
2019-03-15T18:38:27.808Z,1.60
2019-03-15T18:40:59.043Z,0.77
2019-03-15T18:43:32.960Z,0.70
2019-03-15T18:46:04.135Z,0.73
2019-03-15T18:48:35.552Z,1.63
2019-03-15T18:51:06.861Z,1.30
2019-03-15T18:53:38.411Z,2.93
2019-03-15T18:56:09.628Z,0.83
2019-03-15T18:58:40.790Z,0.70
2019-03-15T19:01:12.008Z,1.43
2019-03-15T19:03:43.189Z,2.17
2019-03-15T19:06:14.721Z,2.90
2019-03-15T19:08:45.875Z,1.27
2019-03-15T19:11:16.991Z,2.40
2019-03-15T19:13:48.216Z,0.93
2019-03-15T19:16:20.396Z,8.03
2019-03-15T19:18:51.856Z,1.27
2019-03-15T19:21:23.145Z,1.40
2019-03-15T19:23:54.800Z,1.47
2019-03-15T19:26:28.815Z,1.60
2019-03-15T19:28:58.660Z,0.80
2019-03-15T19:31:29.946Z,3.13
2019-03-15T19:34:01.356Z,2.80
2019-03-15T19:36:32.579Z,2.10
2019-03-15T19:39:05.191Z,1.00
2019-03-15T19:41:36.563Z,1.80
2019-03-15T19:44:08.108Z,3.03
2019-03-15T19:46:40.275Z,1.97
2019-03-15T19:49:11.461Z,1.50
2019-03-15T19:51:42.563Z,4.13
2019-03-15T19:54:13.681Z,3.20
2019-03-15T19:56:45.001Z,1.87
2019-03-15T19:59:16.252Z,2.07
2019-03-15T20:01:47.484Z,2.53
2019-03-15T20:04:19.636Z,4.90
2019-03-15T20:06:51.085Z,5.60
2019-03-15T20:09:22.322Z,3.50
2019-03-15T20:11:53.632Z,2.73
2019-03-15T20:14:25.375Z,4.20
2019-03-15T20:16:56.553Z,4.60
2019-03-15T20:19:27.778Z,5.83
2019-03-15T20:21:58.946Z,7.77
2019-03-15T20:24:30.174Z,4.27
2019-03-15T20:27:01.596Z,3.80
2019-03-15T20:29:32.702Z,2.83
2019-03-15T20:32:03.928Z,5.17
2019-03-15T20:34:35.244Z,3.77
2019-03-15T20:37:06.475Z,4.70
2019-03-15T20:39:38.013Z,3.57
2019-03-15T20:42:09.344Z,5.73
2019-03-15T20:44:42.513Z,3.47
2019-03-15T20:47:13.967Z,3.53
2019-03-15T20:49:45.086Z,2.83
2019-03-15T20:52:16.725Z,3.30
2019-03-15T20:54:48.192Z,2.30
2019-03-15T20:57:19.458Z,4.23
2019-03-15T20:59:50.672Z,3.67
2019-03-15T21:02:22.026Z,3.63
2019-03-15T21:04:53.232Z,3.10
2019-03-15T21:07:24.444Z,4.17
2019-03-15T21:09:55.923Z,3.33
2019-03-15T21:12:27.471Z,3.20
2019-03-15T21:14:59.557Z,5.23
2019-03-15T21:17:30.854Z,2.40
2019-03-15T21:20:02.083Z,3.57
2019-03-15T21:22:33.220Z,4.67
2019-03-15T21:25:04.540Z,4.40
2019-03-15T21:27:36.212Z,3.90
2019-03-15T21:30:10.732Z,3.57
2019-03-15T21:32:41.979Z,5.83
2019-03-15T21:35:13.334Z,4.27
2019-03-15T21:37:44.592Z,4.83
2019-03-15T21:40:15.978Z,5.33
2019-03-15T21:42:47.124Z,4.67
2019-03-15T21:45:18.367Z,9.70
2019-03-15T21:47:49.837Z,5.17
2019-03-15T21:50:21.326Z,5.87
2019-03-15T21:52:52.960Z,6.40
2019-03-15T21:55:24.148Z,6.23
2019-03-15T21:57:55.575Z,3.53
2019-03-15T22:00:26.808Z,5.03
2019-03-15T22:02:58.013Z,4.73
2019-03-15T22:05:29.266Z,4.47
2019-03-15T22:08:00.523Z,4.03
2019-03-15T22:10:32.413Z,4.90
2019-03-15T22:13:03.675Z,4.80
2019-03-15T22:15:35.286Z,6.30
2019-03-15T22:18:06.637Z,4.60
2019-03-15T22:20:37.709Z,5.97
2019-03-15T22:23:09.021Z,5.67
2019-03-15T22:25:40.206Z,9.37
2019-03-15T22:28:11.321Z,7.33
2019-03-15T22:30:42.645Z,8.60
2019-03-15T22:33:13.836Z,6.80
2019-03-15T22:35:44.908Z,6.27
2019-03-15T22:38:25.542Z,7.33
2019-03-15T22:40:49.139Z,8.37
2019-03-15T22:43:20.433Z,8.80
2019-03-15T22:45:51.752Z,8.57
2019-03-15T22:48:23.020Z,8.73
2019-03-15T22:50:54.159Z,9.07
2019-03-15T22:53:25.909Z,8.47
2019-03-15T22:55:57.346Z,11.17
2019-03-15T22:58:28.581Z,8.47
2019-03-15T23:01:00.111Z,8.90
2019-03-15T23:03:31.360Z,9.17
2019-03-15T23:06:02.455Z,8.53
2019-03-15T23:08:33.529Z,9.73
2019-03-15T23:11:04.734Z,7.23
2019-03-15T23:13:36.377Z,5.83
2019-03-15T23:16:07.553Z,6.17
2019-03-15T23:18:38.961Z,4.33
2019-03-15T23:21:10.034Z,5.30
2019-03-15T23:23:41.394Z,5.10
2019-03-15T23:26:13.087Z,5.37
2019-03-15T23:28:47.088Z,5.67
2019-03-15T23:31:17.114Z,6.77
2019-03-15T23:33:49.097Z,4.23
2019-03-15T23:36:20.508Z,6.33
2019-03-15T23:38:51.566Z,6.83
2019-03-15T23:41:22.734Z,6.67
2019-03-15T23:43:53.865Z,8.60
2019-03-15T23:46:25.779Z,6.67
2019-03-15T23:48:56.915Z,6.87
2019-03-15T23:51:28.396Z,5.73
2019-03-15T23:53:59.531Z,6.30
2019-03-15T23:56:31.165Z,5.37
2019-03-15T23:59:02.395Z,6.03
